createdAt,value
2023-11-26T00:00:39.098Z,-0.33
2023-11-26T00:03:08.684Z,-0.34
2023-11-26T00:05:38.029Z,-0.28
2023-11-26T00:08:07.218Z,-0.26
2023-11-26T00:10:36.819Z,-0.28
2023-11-26T00:13:05.776Z,-0.30
2023-11-26T00:15:34.610Z,-0.30
2023-11-26T00:18:03.384Z,-0.26
2023-11-26T00:20:32.337Z,-0.47
2023-11-26T00:23:01.426Z,-0.29
2023-11-26T00:25:30.538Z,-0.26
2023-11-26T00:27:59.483Z,-0.22
2023-11-26T00:30:28.642Z,-0.24
2023-11-26T00:32:57.626Z,-0.19
2023-11-26T00:35:27.155Z,-0.17
2023-11-26T00:37:56.183Z,-0.19
2023-11-26T00:40:26.458Z,-0.15
2023-11-26T00:42:55.421Z,-0.17
2023-11-26T00:45:23.984Z,-0.20
2023-11-26T00:47:53.546Z,-0.17
2023-11-26T00:50:24.460Z,-0.18
2023-11-26T00:52:53.283Z,-0.18
2023-11-26T00:55:22.157Z,-0.13
2023-11-26T00:57:51.546Z,-0.13
2023-11-26T01:00:21.123Z,-0.11
2023-11-26T01:02:49.987Z,-0.09
2023-11-26T01:05:20.001Z,-0.10
2023-11-26T01:07:48.794Z,-0.09
2023-11-26T01:10:17.781Z,-0.12
2023-11-26T01:12:46.587Z,-0.16
2023-11-26T01:15:17.552Z,-0.07
2023-11-26T01:17:46.838Z,-0.07
2023-11-26T01:20:16.273Z,-0.09
2023-11-26T01:22:44.900Z,-0.05
2023-11-26T01:25:13.742Z,-0.06
2023-11-26T01:27:43.087Z,-0.06
2023-11-26T01:30:12.696Z,-0.07
2023-11-26T01:32:41.535Z,-0.05
2023-11-26T01:35:10.848Z,-0.05
2023-11-26T01:37:39.769Z,-0.14
2023-11-26T01:40:13.721Z,-0.04
2023-11-26T01:42:45.935Z,-0.06
2023-11-26T01:45:14.755Z,-0.06
2023-11-26T01:47:46.796Z,-0.06
2023-11-26T01:50:24.099Z,-0.18
2023-11-26T01:52:55.179Z,-0.02
2023-11-26T01:55:25.691Z,-0.02
2023-11-26T01:57:54.878Z,-0.04
2023-11-26T02:00:24.177Z,-0.02
2023-11-26T02:02:53.221Z,0.01
2023-11-26T02:05:22.360Z,0.02
2023-11-26T02:07:51.342Z,-0.03
2023-11-26T02:10:21.121Z,-0.03
2023-11-26T02:13:16.762Z,-0.01
2023-11-26T02:15:48.444Z,-0.04
2023-11-26T02:18:17.376Z,-0.02
2023-11-26T02:20:46.153Z,-0.05
2023-11-26T02:23:17.960Z,0.02
2023-11-26T02:25:46.768Z,0.01
2023-11-26T02:28:15.692Z,-0.02
2023-11-26T02:30:44.482Z,-0.11
2023-11-26T02:33:13.331Z,-0.01
2023-11-26T02:35:42.041Z,-0.03
2023-11-26T02:38:11.048Z,0.02
2023-11-26T02:40:43.040Z,0.01
2023-11-26T02:43:13.019Z,0.04
2023-11-26T02:45:42.243Z,0.02
2023-11-26T02:48:11.082Z,0.06
2023-11-26T02:50:40.159Z,-0.08
2023-11-26T02:53:09.211Z,0.06
2023-11-26T02:55:38.064Z,0.03
2023-11-26T02:58:07.277Z,-0.07
2023-11-26T03:00:38.298Z,0.05
2023-11-26T03:03:08.132Z,0.09
2023-11-26T03:05:37.089Z,0.12
2023-11-26T03:08:23.345Z,0.09
2023-11-26T03:11:11.184Z,0.10
2023-11-26T03:13:40.147Z,0.09
2023-11-26T03:16:10.173Z,0.07
2023-11-26T03:18:39.421Z,0.10
2023-11-26T03:21:09.113Z,0.13
2023-11-26T03:23:37.838Z,0.12
2023-11-26T03:26:07.078Z,0.15
2023-11-26T03:28:36.630Z,0.02
2023-11-26T03:31:07.063Z,0.14
2023-11-26T03:33:37.472Z,0.18
2023-11-26T03:36:08.509Z,0.16
2023-11-26T03:38:37.776Z,0.17
2023-11-26T03:41:08.938Z,0.16
2023-11-26T03:43:38.015Z,0.25
2023-11-26T03:46:08.518Z,0.22
2023-11-26T03:48:37.740Z,0.27
2023-11-26T03:51:06.732Z,0.28
2023-11-26T03:53:35.840Z,0.25
2023-11-26T03:56:04.635Z,0.28
2023-11-26T03:58:34.840Z,0.30
2023-11-26T04:01:05.108Z,0.12
2023-11-26T04:03:35.168Z,0.34
2023-11-26T04:06:04.086Z,0.33
2023-11-26T04:08:33.611Z,0.29
2023-11-26T04:11:02.560Z,0.30
2023-11-26T04:13:33.677Z,0.33
2023-11-26T04:16:05.384Z,0.31
2023-11-26T04:18:34.131Z,0.35
2023-11-26T04:21:03.419Z,0.38
2023-11-26T04:23:32.527Z,0.37
2023-11-26T04:26:02.326Z,0.36
2023-11-26T04:28:31.354Z,0.38
2023-11-26T04:31:00.248Z,0.30
2023-11-26T04:33:31.727Z,0.40
2023-11-26T04:36:01.854Z,0.34
2023-11-26T04:38:30.760Z,0.36
2023-11-26T04:40:59.769Z,0.41
2023-11-26T04:43:28.673Z,0.40
2023-11-26T04:45:57.425Z,0.41
2023-11-26T04:48:26.468Z,0.37
2023-11-26T04:50:56.640Z,0.42
2023-11-26T04:53:25.567Z,0.38
2023-11-26T04:55:55.117Z,0.41
2023-11-26T04:58:24.149Z,0.38
2023-11-26T05:00:55.657Z,0.42
2023-11-26T05:03:24.654Z,0.41
2023-11-26T05:05:53.478Z,0.44
2023-11-26T05:08:22.266Z,0.48
2023-11-26T05:10:51.594Z,0.48
2023-11-26T05:13:20.373Z,0.49
2023-11-26T05:15:49.010Z,0.50
2023-11-26T05:18:17.904Z,0.57
2023-11-26T05:20:47.500Z,0.52
2023-11-26T05:23:16.895Z,0.55
2023-11-26T05:25:46.715Z,0.53
2023-11-26T05:28:16.609Z,0.63
2023-11-26T05:30:46.910Z,0.55
2023-11-26T05:33:16.974Z,0.70
2023-11-26T05:35:46.558Z,0.68
2023-11-26T05:38:15.348Z,0.73
2023-11-26T05:40:44.222Z,0.69
2023-11-26T05:43:12.872Z,0.71
2023-11-26T05:45:41.880Z,0.70
2023-11-26T05:48:10.636Z,0.71
2023-11-26T05:50:39.478Z,0.70
2023-11-26T05:53:09.222Z,0.69
2023-11-26T05:55:37.749Z,0.70
2023-11-26T05:58:06.879Z,0.70
2023-11-26T06:00:35.620Z,0.71
2023-11-26T06:03:04.549Z,0.77
2023-11-26T06:05:36.521Z,0.74
2023-11-26T06:08:05.774Z,0.74
2023-11-26T06:10:35.281Z,0.79
2023-11-26T06:13:04.186Z,0.82
2023-11-26T06:15:32.840Z,0.82
2023-11-26T06:18:01.646Z,0.82
2023-11-26T06:20:30.623Z,0.80
2023-11-26T06:22:59.433Z,0.84
2023-11-26T06:25:28.227Z,0.85
2023-11-26T06:27:57.559Z,0.85
2023-11-26T06:30:26.652Z,0.89
2023-11-26T06:32:56.606Z,0.84
2023-11-26T06:35:25.411Z,0.92
2023-11-26T06:37:54.122Z,0.93
2023-11-26T06:40:23.161Z,0.96
2023-11-26T06:42:51.758Z,1.06
2023-11-26T06:45:20.830Z,1.14
2023-11-26T06:47:49.559Z,1.17
2023-11-26T06:50:18.522Z,1.17
2023-11-26T06:52:47.385Z,1.20
2023-11-26T06:55:16.332Z,1.17
2023-11-26T06:57:45.126Z,1.21
2023-11-26T07:00:14.387Z,1.22
2023-11-26T07:02:43.659Z,1.23
2023-11-26T07:05:14.795Z,1.19
2023-11-26T07:07:43.461Z,1.18
2023-11-26T07:10:12.969Z,1.10
2023-11-26T07:12:41.636Z,1.08
2023-11-26T07:15:12.068Z,1.06
2023-11-26T07:17:40.751Z,1.04
2023-11-26T07:20:11.931Z,1.03
2023-11-26T07:22:41.118Z,1.02
2023-11-26T07:25:10.253Z,1.06
2023-11-26T07:27:39.252Z,1.06
2023-11-26T07:30:11.631Z,1.03
2023-11-26T07:32:44.264Z,1.03
2023-11-26T07:35:13.138Z,1.06
2023-11-26T07:37:42.543Z,1.09
2023-11-26T07:40:15.134Z,1.06
2023-11-26T07:42:44.004Z,1.10
2023-11-26T07:45:13.552Z,1.11
2023-11-26T07:47:42.320Z,1.08
2023-11-26T07:50:11.258Z,0.99
2023-11-26T07:52:41.065Z,1.07
2023-11-26T07:55:10.586Z,1.07
2023-11-26T07:57:39.475Z,1.05
2023-11-26T08:00:11.413Z,1.02
2023-11-26T08:02:43.353Z,1.04
2023-11-26T08:05:20.427Z,1.07
2023-11-26T08:07:49.609Z,1.13
2023-11-26T08:10:22.727Z,1.12
2023-11-26T08:12:52.394Z,1.12
2023-11-26T08:15:22.044Z,1.14
2023-11-26T08:17:53.151Z,1.16
2023-11-26T08:20:23.630Z,1.14
2023-11-26T08:22:53.401Z,1.14
2023-11-26T08:25:25.781Z,1.12
2023-11-26T08:28:01.009Z,1.12
2023-11-26T08:30:33.008Z,1.12
2023-11-26T08:33:04.452Z,1.07
2023-11-26T08:35:34.520Z,1.09
2023-11-26T08:38:04.425Z,1.11
2023-11-26T08:40:36.025Z,1.10
2023-11-26T08:43:06.443Z,1.16
2023-11-26T08:45:35.248Z,1.09
2023-11-26T08:48:04.837Z,1.09
2023-11-26T08:50:34.045Z,1.07
2023-11-26T08:53:07.400Z,1.04
2023-11-26T08:55:39.135Z,1.06
2023-11-26T08:58:07.803Z,1.01
2023-11-26T09:00:36.738Z,1.08
2023-11-26T09:03:05.561Z,0.90
2023-11-26T09:05:34.256Z,1.09
2023-11-26T09:08:03.109Z,1.09
2023-11-26T09:10:31.833Z,1.09
2023-11-26T09:13:00.683Z,1.08
2023-11-26T09:15:30.706Z,1.04
2023-11-26T09:18:01.063Z,1.06
2023-11-26T09:20:31.104Z,1.01
2023-11-26T09:22:59.742Z,1.00
2023-11-26T09:25:29.379Z,0.94
2023-11-26T09:27:58.563Z,0.95
2023-11-26T09:30:27.572Z,0.93
2023-11-26T09:32:56.574Z,0.93
2023-11-26T09:35:25.632Z,0.94
2023-11-26T09:37:54.523Z,0.94
2023-11-26T09:40:23.716Z,0.93
2023-11-26T09:42:57.936Z,0.90
2023-11-26T09:45:26.991Z,0.84
2023-11-26T09:47:55.873Z,0.83
2023-11-26T09:50:24.705Z,0.86
2023-11-26T09:52:56.809Z,0.87
2023-11-26T09:55:26.158Z,0.88
2023-11-26T09:57:55.241Z,0.89
2023-11-26T10:00:25.532Z,0.88
2023-11-26T10:03:05.038Z,0.89
2023-11-26T10:05:34.661Z,0.89
2023-11-26T10:08:04.664Z,0.89
2023-11-26T10:10:33.568Z,0.85
2023-11-26T10:13:06.551Z,0.80
2023-11-26T10:15:43.156Z,0.89
2023-11-26T10:18:15.510Z,0.89
2023-11-26T10:20:47.177Z,0.89
2023-11-26T10:23:27.581Z,0.88
2023-11-26T10:25:56.313Z,0.86
2023-11-26T10:28:25.171Z,0.88
2023-11-26T10:30:54.180Z,0.85
2023-11-26T10:33:23.670Z,0.87
2023-11-26T10:35:59.458Z,0.89
2023-11-26T10:38:36.041Z,0.88
2023-11-26T10:41:05.808Z,0.87
2023-11-26T10:43:45.602Z,0.91
2023-11-26T10:46:17.921Z,0.91
2023-11-26T10:48:56.584Z,0.93
2023-11-26T10:51:29.992Z,0.89
2023-11-26T10:54:07.381Z,0.85
2023-11-26T10:56:41.751Z,0.88
2023-11-26T10:59:11.800Z,0.85
2023-11-26T11:01:42.554Z,0.82
2023-11-26T11:04:16.532Z,0.82
2023-11-26T11:06:45.748Z,0.81
2023-11-26T11:09:29.312Z,0.81
2023-11-26T11:12:08.663Z,0.85
2023-11-26T11:14:37.605Z,0.81
2023-11-26T11:17:06.613Z,0.83
2023-11-26T11:19:57.349Z,0.71
2023-11-26T11:22:37.109Z,0.80
2023-11-26T11:25:13.721Z,0.82
2023-11-26T11:28:01.582Z,0.80
2023-11-26T11:30:42.317Z,0.82
2023-11-26T11:33:12.525Z,0.82
2023-11-26T11:35:43.205Z,0.85
2023-11-26T11:38:12.726Z,0.82
2023-11-26T11:41:21.869Z,0.84
2023-11-26T11:44:29.734Z,0.85
2023-11-26T11:46:59.820Z,0.86
2023-11-26T11:49:48.586Z,0.85
2023-11-26T11:52:18.562Z,0.72
2023-11-26T11:55:17.458Z,0.90
2023-11-26T11:57:50.643Z,0.88
2023-11-26T12:00:24.159Z,0.85
2023-11-26T12:02:56.124Z,0.86
2023-11-26T12:05:27.225Z,0.85
2023-11-26T12:08:00.273Z,0.89
2023-11-26T12:10:34.954Z,0.87
2023-11-26T12:13:12.651Z,0.85
2023-11-26T12:15:42.049Z,0.88
2023-11-26T12:18:11.222Z,0.87
2023-11-26T12:20:40.395Z,0.82
2023-11-26T12:23:09.243Z,0.85
2023-11-26T12:25:37.776Z,0.92
2023-11-26T12:28:08.909Z,0.86
2023-11-26T12:30:39.820Z,0.88
2023-11-26T12:33:09.581Z,0.86
2023-11-26T12:35:40.291Z,0.90
2023-11-26T12:38:09.443Z,0.92
2023-11-26T12:40:38.942Z,0.90
2023-11-26T12:43:08.190Z,0.86
2023-11-26T12:45:36.960Z,0.86
2023-11-26T12:48:06.364Z,0.83
2023-11-26T12:50:44.142Z,0.88
2023-11-26T12:53:14.733Z,0.89
2023-11-26T12:55:47.590Z,0.89
2023-11-26T12:58:25.062Z,0.73
2023-11-26T13:00:54.130Z,0.84
2023-11-26T13:03:23.430Z,0.83
2023-11-26T13:05:53.421Z,0.84
2023-11-26T13:08:26.394Z,0.86
2023-11-26T13:10:59.376Z,0.86
2023-11-26T13:13:33.481Z,0.90
2023-11-26T13:16:06.120Z,0.92
2023-11-26T13:18:36.114Z,0.86
2023-11-26T13:21:08.080Z,0.85
2023-11-26T13:23:39.683Z,0.88
2023-11-26T13:26:09.141Z,0.90
2023-11-26T13:28:40.579Z,0.90
2023-11-26T13:31:09.432Z,0.93
2023-11-26T13:33:38.552Z,0.88
2023-11-26T13:36:07.745Z,0.86
2023-11-26T13:38:36.891Z,0.85
2023-11-26T13:41:05.901Z,0.86
2023-11-26T13:43:34.903Z,0.85
2023-11-26T13:46:05.317Z,0.83
2023-11-26T13:48:36.243Z,0.86
2023-11-26T13:51:05.701Z,0.86
2023-11-26T13:53:35.695Z,0.87
2023-11-26T13:56:05.813Z,0.87
2023-11-26T13:58:41.179Z,0.88
2023-11-26T14:01:11.552Z,0.88
2023-11-26T14:03:41.199Z,0.92
2023-11-26T14:06:11.313Z,0.90
2023-11-26T14:08:40.762Z,0.88
2023-11-26T14:11:10.678Z,0.87
2023-11-26T14:13:39.740Z,0.94
2023-11-26T14:16:12.216Z,0.87
2023-11-26T14:18:45.863Z,0.96
2023-11-26T14:21:17.785Z,0.95
2023-11-26T14:23:46.672Z,0.98
2023-11-26T14:26:15.540Z,0.92
2023-11-26T14:28:44.812Z,0.96
2023-11-26T14:31:13.664Z,0.92
2023-11-26T14:33:42.774Z,0.93
2023-11-26T14:36:16.756Z,0.87
2023-11-26T14:38:45.919Z,0.87
2023-11-26T14:41:17.603Z,0.86
2023-11-26T14:43:47.041Z,0.84
2023-11-26T14:46:20.909Z,0.73
2023-11-26T14:48:49.836Z,0.83
2023-11-26T14:51:18.568Z,0.78
2023-11-26T14:53:49.332Z,0.78
2023-11-26T14:56:18.842Z,0.75
2023-11-26T14:58:47.588Z,0.76
2023-11-26T15:01:16.680Z,0.70
2023-11-26T15:03:49.257Z,0.74
2023-11-26T15:06:22.069Z,0.72
2023-11-26T15:08:51.202Z,0.66
2023-11-26T15:11:20.035Z,0.66
2023-11-26T15:13:49.276Z,0.67
2023-11-26T15:16:18.158Z,0.66
2023-11-26T15:18:47.082Z,0.64
2023-11-26T15:21:17.818Z,0.65
2023-11-26T15:23:46.836Z,0.68
2023-11-26T15:26:23.778Z,0.66
2023-11-26T15:28:55.077Z,0.65
2023-11-26T15:31:23.936Z,0.71
2023-11-26T15:33:53.169Z,0.78
2023-11-26T15:36:22.366Z,0.76
2023-11-26T15:38:54.125Z,0.77
2023-11-26T15:41:24.769Z,0.60
2023-11-26T15:43:54.452Z,0.71
2023-11-26T15:46:24.923Z,0.76
2023-11-26T15:48:54.562Z,0.71
2023-11-26T15:51:24.250Z,0.70
2023-11-26T15:54:02.454Z,0.70
2023-11-26T15:56:32.776Z,0.71
2023-11-26T15:59:02.128Z,0.74
2023-11-26T16:02:45.672Z,0.71
2023-11-26T16:05:15.777Z,0.66
2023-11-26T16:07:44.537Z,0.66
2023-11-26T16:10:13.303Z,0.67
2023-11-26T16:12:42.197Z,0.64
2023-11-26T16:15:12.599Z,0.64
2023-11-26T16:17:43.668Z,0.66
2023-11-26T16:20:13.544Z,0.63
2023-11-26T16:22:42.118Z,0.65
2023-11-26T16:25:11.636Z,0.63
2023-11-26T16:27:40.207Z,0.51
2023-11-26T16:30:09.637Z,0.60
2023-11-26T16:32:38.652Z,0.60
2023-11-26T16:35:08.034Z,0.60
2023-11-26T16:37:37.010Z,0.64
2023-11-26T16:40:09.717Z,0.59
2023-11-26T16:42:38.671Z,0.59
2023-11-26T16:45:10.633Z,0.47
2023-11-26T16:47:39.720Z,0.59
2023-11-26T16:50:08.866Z,0.58
2023-11-26T16:52:37.765Z,0.57
2023-11-26T16:55:06.928Z,0.56
2023-11-26T16:57:35.877Z,0.57
2023-11-26T17:00:06.115Z,0.56
2023-11-26T17:02:35.379Z,0.49
2023-11-26T17:05:05.773Z,0.56
2023-11-26T17:07:34.343Z,0.53
2023-11-26T17:10:03.669Z,0.42
2023-11-26T17:12:38.088Z,0.52
2023-11-26T17:15:08.264Z,0.48
2023-11-26T17:17:37.194Z,0.54
2023-11-26T17:20:06.489Z,0.52
2023-11-26T17:22:36.090Z,0.44
2023-11-26T17:25:05.474Z,0.44
2023-11-26T17:27:34.008Z,0.41
2023-11-26T17:30:02.851Z,0.38
2023-11-26T17:32:31.794Z,0.38
2023-11-26T17:35:00.562Z,0.40
2023-11-26T17:37:29.571Z,0.38
2023-11-26T17:39:58.664Z,0.33
2023-11-26T17:42:28.865Z,0.30
2023-11-26T17:44:58.588Z,0.29
2023-11-26T17:47:27.584Z,0.25
2023-11-26T17:49:56.580Z,0.25
2023-11-26T17:52:26.837Z,0.16
2023-11-26T17:54:56.810Z,0.19
2023-11-26T17:57:25.830Z,0.14
2023-11-26T17:59:54.705Z,0.06
2023-11-26T18:02:23.354Z,0.02
2023-11-26T18:04:53.831Z,-0.01
2023-11-26T18:07:22.764Z,-0.09
2023-11-26T18:09:54.522Z,-0.14
2023-11-26T18:12:23.157Z,-0.18
2023-11-26T18:14:52.276Z,-0.22
2023-11-26T18:17:21.855Z,-0.31
2023-11-26T18:19:53.527Z,-0.35
2023-11-26T18:22:22.044Z,-0.37
2023-11-26T18:24:51.055Z,-0.43
2023-11-26T18:27:19.916Z,-0.62
2023-11-26T18:29:49.243Z,-0.61
2023-11-26T18:32:17.729Z,-0.58
2023-11-26T18:34:48.143Z,-0.76
2023-11-26T18:37:17.717Z,-0.66
2023-11-26T18:39:46.393Z,-0.68
2023-11-26T18:42:16.987Z,-0.72
2023-11-26T18:44:45.832Z,-0.77
2023-11-26T18:47:15.915Z,-0.81
2023-11-26T18:49:44.461Z,-0.90
2023-11-26T18:52:15.605Z,-0.97
2023-11-26T18:54:46.481Z,-1.06
2023-11-26T18:57:15.717Z,-1.02
2023-11-26T18:59:46.804Z,-0.98
2023-11-26T19:02:20.708Z,-1.01
2023-11-26T19:04:49.921Z,-1.03
2023-11-26T19:07:18.651Z,-1.01
2023-11-26T19:09:47.250Z,-0.97
2023-11-26T19:12:16.288Z,-0.93
2023-11-26T19:14:45.256Z,-0.92
2023-11-26T19:17:13.961Z,-0.92
2023-11-26T19:19:42.848Z,-0.85
2023-11-26T19:22:11.661Z,-0.84
2023-11-26T19:24:40.430Z,-0.83
2023-11-26T19:27:09.779Z,-0.85
2023-11-26T19:29:40.678Z,-0.80
2023-11-26T19:32:09.970Z,-0.83
2023-11-26T19:34:38.978Z,-0.77
2023-11-26T19:37:11.999Z,-0.73
2023-11-26T19:39:42.701Z,-0.75
2023-11-26T19:42:14.874Z,-0.70
2023-11-26T19:44:43.821Z,-0.67
2023-11-26T19:47:12.590Z,-0.64
2023-11-26T19:49:41.588Z,-0.64
2023-11-26T19:52:12.474Z,-0.63
2023-11-26T19:54:41.472Z,-0.63
2023-11-26T19:57:10.353Z,-0.59
2023-11-26T19:59:39.289Z,-0.53
2023-11-26T20:02:08.272Z,-0.49
2023-11-26T20:04:37.369Z,-0.46
2023-11-26T20:07:06.852Z,-0.44
2023-11-26T20:09:35.676Z,-0.49
2023-11-26T20:12:04.697Z,-0.48
2023-11-26T20:14:33.617Z,-0.59
2023-11-26T20:17:03.839Z,-0.47
2023-11-26T20:19:32.604Z,-0.44
2023-11-26T20:22:01.406Z,-0.39
2023-11-26T20:24:30.207Z,-0.39
2023-11-26T20:26:58.638Z,-0.37
2023-11-26T20:29:30.622Z,-0.28
2023-11-26T20:31:59.676Z,-0.26
2023-11-26T20:34:28.216Z,-0.33
2023-11-26T20:36:56.976Z,-0.19
2023-11-26T20:39:25.705Z,-0.16
2023-11-26T20:41:56.963Z,-0.16
2023-11-26T20:44:25.622Z,-0.17
2023-11-26T20:46:58.519Z,-0.12
2023-11-26T20:49:28.374Z,-0.22
2023-11-26T20:51:57.350Z,-0.13
2023-11-26T20:54:26.160Z,-0.11
2023-11-26T20:56:55.181Z,-0.12
2023-11-26T20:59:23.971Z,-0.09
2023-11-26T21:01:52.650Z,-0.12
2023-11-26T21:04:23.691Z,-0.19
2023-11-26T21:06:52.910Z,-0.08
2023-11-26T21:09:21.832Z,-0.11
2023-11-26T21:11:52.003Z,-0.10
2023-11-26T21:14:21.455Z,-0.16
2023-11-26T21:16:50.540Z,-0.12
2023-11-26T21:19:19.191Z,-0.15
2023-11-26T21:21:47.796Z,-0.13
2023-11-26T21:24:16.329Z,-0.19
2023-11-26T21:26:45.670Z,-0.18
2023-11-26T21:29:14.221Z,-0.19
2023-11-26T21:31:43.252Z,-0.18
2023-11-26T21:34:14.895Z,-0.14
2023-11-26T21:36:50.133Z,-0.16
2023-11-26T21:39:19.140Z,-0.15
2023-11-26T21:41:48.807Z,-0.14
2023-11-26T21:44:17.657Z,-0.21
2023-11-26T21:46:46.037Z,-0.19
2023-11-26T21:49:16.669Z,-0.22
2023-11-26T21:51:46.212Z,-0.18
2023-11-26T21:54:17.245Z,-0.15
2023-11-26T21:56:45.854Z,-0.18
2023-11-26T21:59:15.549Z,-0.22
2023-11-26T22:01:44.558Z,-0.22
2023-11-26T22:04:14.030Z,-0.14
2023-11-26T22:06:42.866Z,-0.14
2023-11-26T22:09:11.832Z,-0.18
2023-11-26T22:11:40.689Z,-0.18
2023-11-26T22:14:09.578Z,-0.24
2023-11-26T22:16:40.089Z,-0.19
2023-11-26T22:19:09.452Z,-0.21
2023-11-26T22:21:37.968Z,-0.21
2023-11-26T22:24:08.657Z,-0.32
2023-11-26T22:26:40.720Z,-0.29
2023-11-26T22:29:10.160Z,-0.18
2023-11-26T22:31:39.402Z,-0.18
2023-11-26T22:34:09.329Z,-0.17
2023-11-26T22:36:39.810Z,-0.17
2023-11-26T22:39:15.700Z,-0.24
2023-11-26T22:41:44.640Z,-0.20
2023-11-26T22:44:13.555Z,-0.18
2023-11-26T22:46:42.100Z,-0.16
2023-11-26T22:49:10.743Z,-0.30
2023-11-26T22:51:40.616Z,-0.21
2023-11-26T22:54:09.808Z,-0.25
2023-11-26T22:56:38.415Z,-0.23
2023-11-26T22:59:07.406Z,-0.24
2023-11-26T23:01:36.181Z,-0.26
2023-11-26T23:04:04.945Z,-0.32
2023-11-26T23:06:34.209Z,-0.24
2023-11-26T23:09:02.887Z,-0.27
2023-11-26T23:11:31.495Z,-0.26
2023-11-26T23:14:00.324Z,-0.27
2023-11-26T23:16:28.993Z,-0.31
2023-11-26T23:18:57.739Z,-0.25
2023-11-26T23:21:27.114Z,-0.22
2023-11-26T23:23:56.287Z,-0.26
2023-11-26T23:26:26.037Z,-0.21
2023-11-26T23:28:54.699Z,-0.41
2023-11-26T23:31:26.071Z,-0.30
2023-11-26T23:33:54.898Z,-0.29
2023-11-26T23:36:26.290Z,-0.36
2023-11-26T23:38:56.986Z,-0.32
2023-11-26T23:41:25.835Z,-0.34
2023-11-26T23:43:54.258Z,-0.37
2023-11-26T23:46:22.947Z,-0.39
2023-11-26T23:48:51.951Z,-0.34
2023-11-26T23:51:20.671Z,-0.38
2023-11-26T23:53:49.350Z,-0.35
2023-11-26T23:56:20.781Z,-0.34
2023-11-26T23:58:49.713Z,-0.44
